sensor_id;sensor_type;location;lat;lon;timestamp;temperature;humidity
64951;DHT22;51482;47.014;7.652;2022-10-16T00:00:26;13.80;99.90
64951;DHT22;51482;47.014;7.652;2022-10-16T00:02:52;13.80;99.90
64951;DHT22;51482;47.014;7.652;2022-10-16T00:05:17;14.20;99.90
64951;DHT22;51482;47.014;7.652;2022-10-16T00:07:43;13.70;99.90
64951;DHT22;51482;47.014;7.652;2022-10-16T00:10:08;13.80;99.90
64951;DHT22;51482;47.014;7.652;2022-10-16T00:12:34;13.70;99.90
64951;DHT22;51482;47.014;7.652;2022-10-16T00:14:59;13.80;99.90
64951;DHT22;51482;47.014;7.652;2022-10-16T00:17:25;13.80;99.90
64951;DHT22;51482;47.014;7.652;2022-10-16T00:19:50;14.40;99.90
64951;DHT22;51482;47.014;7.652;2022-10-16T00:22:16;13.80;99.90
64951;DHT22;51482;47.014;7.652;2022-10-16T00:24:41;13.80;99.90
64951;DHT22;51482;47.014;7.652;2022-10-16T00:27:07;13.80;99.90
64951;DHT22;51482;47.014;7.652;2022-10-16T00:29:32;13.80;99.90
64951;DHT22;51482;47.014;7.652;2022-10-16T00:31:58;13.80;99.90
64951;DHT22;51482;47.014;7.652;2022-10-16T00:34:24;13.80;99.90
64951;DHT22;51482;47.014;7.652;2022-10-16T00:36:49;13.80;99.90
64951;DHT22;51482;47.014;7.652;2022-10-16T00:39:15;13.80;99.90
64951;DHT22;51482;47.014;7.652;2022-10-16T00:41:40;13.80;99.90
64951;DHT22;51482;47.014;7.652;2022-10-16T00:47:09;13.80;99.90
64951;DHT22;51482;47.014;7.652;2022-10-16T00:49:35;13.80;99.90
64951;DHT22;51482;47.014;7.652;2022-10-16T00:52:00;13.70;99.90
64951;DHT22;51482;47.014;7.652;2022-10-16T00:54:28;13.70;99.90
64951;DHT22;51482;47.014;7.652;2022-10-16T00:56:55;13.70;99.90
64951;DHT22;51482;47.014;7.652;2022-10-16T00:59:27;13.70;99.90
64951;DHT22;51482;47.014;7.652;2022-10-16T01:01:54;13.80;99.90
64951;DHT22;51482;47.014;7.652;2022-10-16T01:04:20;13.80;99.90
64951;DHT22;51482;47.014;7.652;2022-10-16T01:06:55;13.70;99.90
64951;DHT22;51482;47.014;7.652;2022-10-16T01:12:29;13.80;99.90
64951;DHT22;51482;47.014;7.652;2022-10-16T01:15:11;13.70;99.90
64951;DHT22;51482;47.014;7.652;2022-10-16T01:17:53;13.70;99.90
64951;DHT22;51482;47.014;7.652;2022-10-16T01:20:32;13.70;99.90
64951;DHT22;51482;47.014;7.652;2022-10-16T01:23:18;13.70;99.90
64951;DHT22;51482;47.014;7.652;2022-10-16T01:31:18;13.70;99.90
64951;DHT22;51482;47.014;7.652;2022-10-16T01:33:55;13.60;99.90
64951;DHT22;51482;47.014;7.652;2022-10-16T01:36:37;13.60;99.90
64951;DHT22;51482;47.014;7.652;2022-10-16T01:39:05;14.10;99.90
64951;DHT22;51482;47.014;7.652;2022-10-16T01:41:41;14.00;99.90
64951;DHT22;51482;47.014;7.652;2022-10-16T01:44:12;13.60;99.90
64951;DHT22;51482;47.014;7.652;2022-10-16T01:46:41;13.60;99.90
64951;DHT22;51482;47.014;7.652;2022-10-16T01:49:09;13.60;99.90
64951;DHT22;51482;47.014;7.652;2022-10-16T01:51:37;13.60;99.90
64951;DHT22;51482;47.014;7.652;2022-10-16T01:54:05;13.60;99.90
64951;DHT22;51482;47.014;7.652;2022-10-16T01:56:32;13.60;99.90
64951;DHT22;51482;47.014;7.652;2022-10-16T01:59:06;13.50;99.90
64951;DHT22;51482;47.014;7.652;2022-10-16T02:01:34;13.50;99.90
64951;DHT22;51482;47.014;7.652;2022-10-16T02:04:07;13.50;99.90
64951;DHT22;51482;47.014;7.652;2022-10-16T02:06:34;13.70;99.90
64951;DHT22;51482;47.014;7.652;2022-10-16T02:09:01;13.50;99.90
64951;DHT22;51482;47.014;7.652;2022-10-16T02:11:26;13.40;99.90
64951;DHT22;51482;47.014;7.652;2022-10-16T02:13:58;13.40;99.90
64951;DHT22;51482;47.014;7.652;2022-10-16T02:16:37;13.40;99.90
64951;DHT22;51482;47.014;7.652;2022-10-16T02:19:03;13.40;99.90
64951;DHT22;51482;47.014;7.652;2022-10-16T02:21:40;13.40;99.90
64951;DHT22;51482;47.014;7.652;2022-10-16T02:24:08;13.40;99.90
64951;DHT22;51482;47.014;7.652;2022-10-16T02:26:56;13.40;99.90
64951;DHT22;51482;47.014;7.652;2022-10-16T02:29:25;13.40;99.90
64951;DHT22;51482;47.014;7.652;2022-10-16T02:31:57;13.40;99.90
64951;DHT22;51482;47.014;7.652;2022-10-16T02:34:25;13.40;99.90
64951;DHT22;51482;47.014;7.652;2022-10-16T02:36:55;13.40;99.90
64951;DHT22;51482;47.014;7.652;2022-10-16T02:39:22;13.40;99.90
64951;DHT22;51482;47.014;7.652;2022-10-16T02:41:47;13.40;99.90
64951;DHT22;51482;47.014;7.652;2022-10-16T02:44:13;13.40;99.90
64951;DHT22;51482;47.014;7.652;2022-10-16T02:46:39;13.40;99.90
64951;DHT22;51482;47.014;7.652;2022-10-16T02:49:04;13.70;99.90
64951;DHT22;51482;47.014;7.652;2022-10-16T02:51:30;13.40;99.90
64951;DHT22;51482;47.014;7.652;2022-10-16T02:53:55;13.20;99.90
64951;DHT22;51482;47.014;7.652;2022-10-16T02:56:21;13.50;99.90
64951;DHT22;51482;47.014;7.652;2022-10-16T02:58:46;13.50;99.90
64951;DHT22;51482;47.014;7.652;2022-10-16T03:01:12;13.50;99.90
64951;DHT22;51482;47.014;7.652;2022-10-16T03:03:39;13.50;99.90
64951;DHT22;51482;47.014;7.652;2022-10-16T03:06:05;13.40;99.90
64951;DHT22;51482;47.014;7.652;2022-10-16T03:08:31;13.40;99.90
64951;DHT22;51482;47.014;7.652;2022-10-16T03:10:57;13.40;99.90
64951;DHT22;51482;47.014;7.652;2022-10-16T03:13:22;13.40;99.90
64951;DHT22;51482;47.014;7.652;2022-10-16T03:15:48;13.40;99.90
64951;DHT22;51482;47.014;7.652;2022-10-16T03:18:14;13.50;99.90
64951;DHT22;51482;47.014;7.652;2022-10-16T03:20:40;13.50;99.90
64951;DHT22;51482;47.014;7.652;2022-10-16T03:23:05;13.40;99.90
64951;DHT22;51482;47.014;7.652;2022-10-16T03:25:33;13.40;99.90
64951;DHT22;51482;47.014;7.652;2022-10-16T03:27:59;13.40;99.90
64951;DHT22;51482;47.014;7.652;2022-10-16T03:30:24;13.40;99.90
64951;DHT22;51482;47.014;7.652;2022-10-16T03:32:50;13.30;99.90
64951;DHT22;51482;47.014;7.652;2022-10-16T03:35:19;13.30;99.90
64951;DHT22;51482;47.014;7.652;2022-10-16T03:37:45;13.30;99.90
64951;DHT22;51482;47.014;7.652;2022-10-16T03:40:11;13.30;99.90
64951;DHT22;51482;47.014;7.652;2022-10-16T03:42:36;13.30;99.90
64951;DHT22;51482;47.014;7.652;2022-10-16T03:45:03;13.30;99.90
64951;DHT22;51482;47.014;7.652;2022-10-16T03:47:28;13.30;99.90
64951;DHT22;51482;47.014;7.652;2022-10-16T03:49:54;13.30;99.90
64951;DHT22;51482;47.014;7.652;2022-10-16T03:52:19;13.60;99.90
64951;DHT22;51482;47.014;7.652;2022-10-16T03:54:45;13.40;99.90
64951;DHT22;51482;47.014;7.652;2022-10-16T03:57:10;13.40;99.90
64951;DHT22;51482;47.014;7.652;2022-10-16T03:59:36;13.40;99.90
64951;DHT22;51482;47.014;7.652;2022-10-16T04:02:01;13.40;99.90
64951;DHT22;51482;47.014;7.652;2022-10-16T04:04:27;13.40;99.90
64951;DHT22;51482;47.014;7.652;2022-10-16T04:06:52;13.40;99.90
64951;DHT22;51482;47.014;7.652;2022-10-16T04:09:18;13.20;99.90
64951;DHT22;51482;47.014;7.652;2022-10-16T04:11:43;13.40;99.90
64951;DHT22;51482;47.014;7.652;2022-10-16T04:14:09;13.40;99.90
64951;DHT22;51482;47.014;7.652;2022-10-16T04:16:34;13.30;99.90
64951;DHT22;51482;47.014;7.652;2022-10-16T04:19:00;13.40;99.90
64951;DHT22;51482;47.014;7.652;2022-10-16T04:21:26;13.30;99.90
64951;DHT22;51482;47.014;7.652;2022-10-16T04:23:51;13.30;99.90
64951;DHT22;51482;47.014;7.652;2022-10-16T04:26:17;13.20;99.90
64951;DHT22;51482;47.014;7.652;2022-10-16T04:28:43;13.30;99.90
64951;DHT22;51482;47.014;7.652;2022-10-16T04:31:08;13.30;99.90
64951;DHT22;51482;47.014;7.652;2022-10-16T04:33:34;13.30;99.90
64951;DHT22;51482;47.014;7.652;2022-10-16T04:36:00;13.30;99.90
64951;DHT22;51482;47.014;7.652;2022-10-16T04:38:26;13.30;99.90
64951;DHT22;51482;47.014;7.652;2022-10-16T04:40:52;13.40;99.90
64951;DHT22;51482;47.014;7.652;2022-10-16T04:43:18;13.40;99.90
64951;DHT22;51482;47.014;7.652;2022-10-16T04:45:43;13.40;99.90
64951;DHT22;51482;47.014;7.652;2022-10-16T04:48:09;13.30;99.90
64951;DHT22;51482;47.014;7.652;2022-10-16T04:50:35;13.30;99.90
64951;DHT22;51482;47.014;7.652;2022-10-16T04:53:00;13.20;99.90
64951;DHT22;51482;47.014;7.652;2022-10-16T04:55:26;13.20;99.90
64951;DHT22;51482;47.014;7.652;2022-10-16T04:57:51;13.20;99.90
64951;DHT22;51482;47.014;7.652;2022-10-16T05:00:17;13.20;99.90
64951;DHT22;51482;47.014;7.652;2022-10-16T05:02:43;13.30;99.90
64951;DHT22;51482;47.014;7.652;2022-10-16T05:05:09;13.30;99.90
64951;DHT22;51482;47.014;7.652;2022-10-16T05:07:34;13.90;99.90
64951;DHT22;51482;47.014;7.652;2022-10-16T05:10:00;13.30;99.90
64951;DHT22;51482;47.014;7.652;2022-10-16T05:12:25;13.30;99.90
64951;DHT22;51482;47.014;7.652;2022-10-16T05:14:51;13.30;99.90
64951;DHT22;51482;47.014;7.652;2022-10-16T05:17:16;13.20;99.90
64951;DHT22;51482;47.014;7.652;2022-10-16T05:19:42;13.20;99.90
64951;DHT22;51482;47.014;7.652;2022-10-16T05:22:07;13.20;99.90
64951;DHT22;51482;47.014;7.652;2022-10-16T05:24:33;13.70;99.90
64951;DHT22;51482;47.014;7.652;2022-10-16T05:26:58;13.30;99.90
64951;DHT22;51482;47.014;7.652;2022-10-16T05:29:24;13.20;99.90
64951;DHT22;51482;47.014;7.652;2022-10-16T05:31:51;13.20;99.90
64951;DHT22;51482;47.014;7.652;2022-10-16T05:34:17;13.20;99.90
64951;DHT22;51482;47.014;7.652;2022-10-16T05:36:42;13.10;99.90
64951;DHT22;51482;47.014;7.652;2022-10-16T05:39:10;13.10;99.90
64951;DHT22;51482;47.014;7.652;2022-10-16T05:41:36;13.10;99.90
64951;DHT22;51482;47.014;7.652;2022-10-16T05:44:05;13.10;99.90
64951;DHT22;51482;47.014;7.652;2022-10-16T05:46:32;13.10;99.90
64951;DHT22;51482;47.014;7.652;2022-10-16T05:48:57;13.10;99.90
64951;DHT22;51482;47.014;7.652;2022-10-16T05:51:23;13.10;99.90
64951;DHT22;51482;47.014;7.652;2022-10-16T05:53:49;13.10;99.90
64951;DHT22;51482;47.014;7.652;2022-10-16T05:56:14;13.70;99.90
64951;DHT22;51482;47.014;7.652;2022-10-16T05:58:40;13.50;99.90
64951;DHT22;51482;47.014;7.652;2022-10-16T06:01:11;13.10;99.90
64951;DHT22;51482;47.014;7.652;2022-10-16T06:03:37;13.10;99.90
64951;DHT22;51482;47.014;7.652;2022-10-16T06:06:18;13.10;99.90
64951;DHT22;51482;47.014;7.652;2022-10-16T06:08:45;13.10;99.90
64951;DHT22;51482;47.014;7.652;2022-10-16T06:11:16;13.50;99.90
64951;DHT22;51482;47.014;7.652;2022-10-16T06:13:42;13.10;99.90
64951;DHT22;51482;47.014;7.652;2022-10-16T06:16:09;13.10;99.90
64951;DHT22;51482;47.014;7.652;2022-10-16T06:18:35;13.20;99.90
64951;DHT22;51482;47.014;7.652;2022-10-16T06:21:11;13.10;99.90
64951;DHT22;51482;47.014;7.652;2022-10-16T06:23:37;13.20;99.90
64951;DHT22;51482;47.014;7.652;2022-10-16T06:26:10;13.20;99.90
64951;DHT22;51482;47.014;7.652;2022-10-16T06:28:37;13.30;99.90
64951;DHT22;51482;47.014;7.652;2022-10-16T06:31:04;13.30;99.90
64951;DHT22;51482;47.014;7.652;2022-10-16T06:33:30;13.80;99.90
64951;DHT22;51482;47.014;7.652;2022-10-16T06:36:09;14.00;99.90
64951;DHT22;51482;47.014;7.652;2022-10-16T06:38:35;13.70;99.90
64951;DHT22;51482;47.014;7.652;2022-10-16T06:41:03;13.30;99.90
64951;DHT22;51482;47.014;7.652;2022-10-16T06:43:30;13.30;99.90
64951;DHT22;51482;47.014;7.652;2022-10-16T06:45:58;13.40;99.90
64951;DHT22;51482;47.014;7.652;2022-10-16T06:48:24;13.40;99.90
64951;DHT22;51482;47.014;7.652;2022-10-16T06:50:59;13.40;99.90
64951;DHT22;51482;47.014;7.652;2022-10-16T06:53:29;13.40;99.90
64951;DHT22;51482;47.014;7.652;2022-10-16T06:55:54;13.40;99.90
64951;DHT22;51482;47.014;7.652;2022-10-16T06:58:21;13.50;99.90
64951;DHT22;51482;47.014;7.652;2022-10-16T07:00:47;13.50;99.90
64951;DHT22;51482;47.014;7.652;2022-10-16T07:03:13;13.60;99.90
64951;DHT22;51482;47.014;7.652;2022-10-16T07:05:40;13.70;99.90
64951;DHT22;51482;47.014;7.652;2022-10-16T07:08:06;13.70;99.90
64951;DHT22;51482;47.014;7.652;2022-10-16T07:10:32;13.70;99.90
64951;DHT22;51482;47.014;7.652;2022-10-16T07:12:57;13.80;99.90
64951;DHT22;51482;47.014;7.652;2022-10-16T07:15:24;13.80;99.90
64951;DHT22;51482;47.014;7.652;2022-10-16T07:17:50;13.80;99.90
64951;DHT22;51482;47.014;7.652;2022-10-16T07:20:17;14.20;99.90
64951;DHT22;51482;47.014;7.652;2022-10-16T07:22:42;13.80;99.90
64951;DHT22;51482;47.014;7.652;2022-10-16T07:25:08;14.50;99.90
64951;DHT22;51482;47.014;7.652;2022-10-16T07:27:34;13.90;99.90
64951;DHT22;51482;47.014;7.652;2022-10-16T07:30:00;14.00;99.90
64951;DHT22;51482;47.014;7.652;2022-10-16T07:32:25;14.00;99.90
64951;DHT22;51482;47.014;7.652;2022-10-16T07:34:52;14.10;99.90
64951;DHT22;51482;47.014;7.652;2022-10-16T07:37:17;14.20;99.90
64951;DHT22;51482;47.014;7.652;2022-10-16T07:39:43;14.20;99.90
64951;DHT22;51482;47.014;7.652;2022-10-16T07:42:08;14.60;99.90
64951;DHT22;51482;47.014;7.652;2022-10-16T07:44:34;14.30;99.90
64951;DHT22;51482;47.014;7.652;2022-10-16T07:47:00;14.30;99.90
64951;DHT22;51482;47.014;7.652;2022-10-16T07:49:25;14.30;99.90
64951;DHT22;51482;47.014;7.652;2022-10-16T07:51:51;14.40;99.90
64951;DHT22;51482;47.014;7.652;2022-10-16T07:54:16;14.40;99.90
64951;DHT22;51482;47.014;7.652;2022-10-16T07:56:42;14.40;99.90
64951;DHT22;51482;47.014;7.652;2022-10-16T07:59:07;14.40;99.90
64951;DHT22;51482;47.014;7.652;2022-10-16T08:01:33;14.40;99.90
64951;DHT22;51482;47.014;7.652;2022-10-16T08:03:58;14.40;99.90
64951;DHT22;51482;47.014;7.652;2022-10-16T08:06:24;14.40;99.90
64951;DHT22;51482;47.014;7.652;2022-10-16T08:08:49;14.30;99.90
64951;DHT22;51482;47.014;7.652;2022-10-16T08:11:15;14.30;99.90
64951;DHT22;51482;47.014;7.652;2022-10-16T08:13:41;14.30;99.90
64951;DHT22;51482;47.014;7.652;2022-10-16T08:16:07;14.40;99.90
64951;DHT22;51482;47.014;7.652;2022-10-16T08:18:35;14.40;99.90
64951;DHT22;51482;47.014;7.652;2022-10-16T08:21:01;14.40;99.90
64951;DHT22;51482;47.014;7.652;2022-10-16T08:23:27;14.50;99.90
64951;DHT22;51482;47.014;7.652;2022-10-16T08:25:54;14.30;99.90
64951;DHT22;51482;47.014;7.652;2022-10-16T08:28:20;14.20;99.90
64951;DHT22;51482;47.014;7.652;2022-10-16T08:30:46;14.20;99.90
64951;DHT22;51482;47.014;7.652;2022-10-16T08:33:12;14.20;99.90
64951;DHT22;51482;47.014;7.652;2022-10-16T08:35:37;14.20;99.90
64951;DHT22;51482;47.014;7.652;2022-10-16T08:38:06;15.10;99.90
64951;DHT22;51482;47.014;7.652;2022-10-16T08:40:34;15.40;99.90
64951;DHT22;51482;47.014;7.652;2022-10-16T08:51:07;17.80;99.90
64951;DHT22;51482;47.014;7.652;2022-10-16T08:53:42;17.80;99.90
64951;DHT22;51482;47.014;7.652;2022-10-16T08:56:08;18.20;99.90
64951;DHT22;51482;47.014;7.652;2022-10-16T08:58:34;18.60;99.90
64951;DHT22;51482;47.014;7.652;2022-10-16T09:01:05;19.30;99.90
64951;DHT22;51482;47.014;7.652;2022-10-16T09:04:07;19.40;99.90
64951;DHT22;51482;47.014;7.652;2022-10-16T09:06:47;19.80;99.90
64951;DHT22;51482;47.014;7.652;2022-10-16T09:12:20;19.40;99.90
64951;DHT22;51482;47.014;7.652;2022-10-16T09:18:00;19.80;99.90
64951;DHT22;51482;47.014;7.652;2022-10-16T09:20:38;20.50;99.90
64951;DHT22;51482;47.014;7.652;2022-10-16T09:23:18;21.10;99.90
64951;DHT22;51482;47.014;7.652;2022-10-16T09:25:49;20.90;99.90
64951;DHT22;51482;47.014;7.652;2022-10-16T09:28:17;20.70;99.90
64951;DHT22;51482;47.014;7.652;2022-10-16T09:30:43;20.90;99.90
64951;DHT22;51482;47.014;7.652;2022-10-16T09:33:10;21.60;99.90
64951;DHT22;51482;47.014;7.652;2022-10-16T09:35:37;21.90;99.90
64951;DHT22;51482;47.014;7.652;2022-10-16T09:38:04;22.40;99.90
64951;DHT22;51482;47.014;7.652;2022-10-16T09:40:35;22.80;99.90
64951;DHT22;51482;47.014;7.652;2022-10-16T09:43:22;23.40;99.90
64951;DHT22;51482;47.014;7.652;2022-10-16T09:48:22;24.00;99.90
64951;DHT22;51482;47.014;7.652;2022-10-16T09:51:02;24.20;99.90
64951;DHT22;51482;47.014;7.652;2022-10-16T09:53:59;24.50;99.90
64951;DHT22;51482;47.014;7.652;2022-10-16T09:56:28;24.70;99.90
64951;DHT22;51482;47.014;7.652;2022-10-16T09:58:56;24.70;99.90
64951;DHT22;51482;47.014;7.652;2022-10-16T10:01:45;24.70;99.90
64951;DHT22;51482;47.014;7.652;2022-10-16T10:04:10;24.40;99.90
64951;DHT22;51482;47.014;7.652;2022-10-16T10:06:47;24.50;99.90
64951;DHT22;51482;47.014;7.652;2022-10-16T10:14:33;23.90;99.90
64951;DHT22;51482;47.014;7.652;2022-10-16T10:17:16;23.30;99.90
64951;DHT22;51482;47.014;7.652;2022-10-16T10:22:30;23.70;99.90
64951;DHT22;51482;47.014;7.652;2022-10-16T10:25:01;24.60;99.90
64951;DHT22;51482;47.014;7.652;2022-10-16T10:35:51;26.30;99.90
64951;DHT22;51482;47.014;7.652;2022-10-16T10:46:17;27.60;97.80
64951;DHT22;51482;47.014;7.652;2022-10-16T10:54:42;27.90;93.40
64951;DHT22;51482;47.014;7.652;2022-10-16T11:08:37;28.80;84.10
64951;DHT22;51482;47.014;7.652;2022-10-16T11:11:14;28.90;83.30
64951;DHT22;51482;47.014;7.652;2022-10-16T11:16:58;29.20;77.00
64951;DHT22;51482;47.014;7.652;2022-10-16T11:19:45;29.30;76.90
64951;DHT22;51482;47.014;7.652;2022-10-16T11:27:47;29.40;73.10
64951;DHT22;51482;47.014;7.652;2022-10-16T11:35:51;30.20;71.90
64951;DHT22;51482;47.014;7.652;2022-10-16T11:38:49;29.80;64.90
64951;DHT22;51482;47.014;7.652;2022-10-16T11:49:41;29.60;64.40
64951;DHT22;51482;47.014;7.652;2022-10-16T11:54:54;30.00;66.30
64951;DHT22;51482;47.014;7.652;2022-10-16T11:57:39;29.90;63.60
64951;DHT22;51482;47.014;7.652;2022-10-16T12:00:21;29.70;64.30
64951;DHT22;51482;47.014;7.652;2022-10-16T12:08:17;29.90;65.00
64951;DHT22;51482;47.014;7.652;2022-10-16T12:10:45;30.00;63.30
64951;DHT22;51482;47.014;7.652;2022-10-16T12:13:37;30.00;64.10
64951;DHT22;51482;47.014;7.652;2022-10-16T12:18:43;30.10;65.40
64951;DHT22;51482;47.014;7.652;2022-10-16T12:21:09;30.30;63.00
64951;DHT22;51482;47.014;7.652;2022-10-16T12:26:12;29.90;66.00
64951;DHT22;51482;47.014;7.652;2022-10-16T12:28:38;30.00;63.90
64951;DHT22;51482;47.014;7.652;2022-10-16T12:31:09;30.00;65.50
64951;DHT22;51482;47.014;7.652;2022-10-16T12:33:37;29.80;63.50
64951;DHT22;51482;47.014;7.652;2022-10-16T12:36:25;29.80;66.80
64951;DHT22;51482;47.014;7.652;2022-10-16T12:38:52;29.80;66.20
64951;DHT22;51482;47.014;7.652;2022-10-16T12:41:31;30.10;65.00
64951;DHT22;51482;47.014;7.652;2022-10-16T12:43:58;30.10;62.80
64951;DHT22;51482;47.014;7.652;2022-10-16T12:51:40;29.90;60.20
64951;DHT22;51482;47.014;7.652;2022-10-16T13:00:02;30.20;60.20
64951;DHT22;51482;47.014;7.652;2022-10-16T13:02:46;30.40;63.20
64951;DHT22;51482;47.014;7.652;2022-10-16T13:11:03;30.60;61.90
64951;DHT22;51482;47.014;7.652;2022-10-16T13:16:10;30.70;61.80
64951;DHT22;51482;47.014;7.652;2022-10-16T13:18:42;30.80;59.20
64951;DHT22;51482;47.014;7.652;2022-10-16T13:24:17;30.80;59.00
64951;DHT22;51482;47.014;7.652;2022-10-16T13:29:20;30.80;59.60
64951;DHT22;51482;47.014;7.652;2022-10-16T13:31:46;30.70;59.80
64951;DHT22;51482;47.014;7.652;2022-10-16T13:34:22;30.60;58.30
64951;DHT22;51482;47.014;7.652;2022-10-16T13:36:53;30.60;58.80
64951;DHT22;51482;47.014;7.652;2022-10-16T13:39:28;30.80;59.30
64951;DHT22;51482;47.014;7.652;2022-10-16T13:42:29;30.80;58.60
64951;DHT22;51482;47.014;7.652;2022-10-16T13:44:56;31.00;58.00
64951;DHT22;51482;47.014;7.652;2022-10-16T13:47:27;31.00;58.80
64951;DHT22;51482;47.014;7.652;2022-10-16T13:50:04;30.70;57.40
64951;DHT22;51482;47.014;7.652;2022-10-16T13:52:30;30.60;58.40
64951;DHT22;51482;47.014;7.652;2022-10-16T13:54:56;30.60;58.40
64951;DHT22;51482;47.014;7.652;2022-10-16T13:57:23;30.80;59.60
64951;DHT22;51482;47.014;7.652;2022-10-16T13:59:50;30.50;59.70
64951;DHT22;51482;47.014;7.652;2022-10-16T14:02:30;30.40;59.00
64951;DHT22;51482;47.014;7.652;2022-10-16T14:04:57;30.50;59.90
64951;DHT22;51482;47.014;7.652;2022-10-16T14:07:31;30.60;59.90
64951;DHT22;51482;47.014;7.652;2022-10-16T14:10:04;30.50;60.00
64951;DHT22;51482;47.014;7.652;2022-10-16T14:12:31;30.70;58.60
64951;DHT22;51482;47.014;7.652;2022-10-16T14:15:15;30.70;58.70
64951;DHT22;51482;47.014;7.652;2022-10-16T14:17:44;30.70;58.40
64951;DHT22;51482;47.014;7.652;2022-10-16T14:20:15;30.60;61.00
64951;DHT22;51482;47.014;7.652;2022-10-16T14:22:41;30.40;58.70
64951;DHT22;51482;47.014;7.652;2022-10-16T14:27:45;30.00;59.50
64951;DHT22;51482;47.014;7.652;2022-10-16T14:30:21;30.00;61.90
64951;DHT22;51482;47.014;7.652;2022-10-16T14:32:59;30.00;60.70
64951;DHT22;51482;47.014;7.652;2022-10-16T14:35:33;30.20;60.10
64951;DHT22;51482;47.014;7.652;2022-10-16T14:38:01;30.20;61.00
64951;DHT22;51482;47.014;7.652;2022-10-16T14:40:30;29.90;60.90
64951;DHT22;51482;47.014;7.652;2022-10-16T14:42:56;29.70;62.90
64951;DHT22;51482;47.014;7.652;2022-10-16T14:45:26;29.80;63.70
64951;DHT22;51482;47.014;7.652;2022-10-16T14:47:56;29.70;61.70
64951;DHT22;51482;47.014;7.652;2022-10-16T14:50:22;29.90;62.70
64951;DHT22;51482;47.014;7.652;2022-10-16T14:52:48;29.90;61.70
64951;DHT22;51482;47.014;7.652;2022-10-16T14:55:14;29.90;63.30
64951;DHT22;51482;47.014;7.652;2022-10-16T14:57:40;29.90;64.20
64951;DHT22;51482;47.014;7.652;2022-10-16T15:00:24;29.80;63.40
64951;DHT22;51482;47.014;7.652;2022-10-16T15:02:50;29.80;60.40
64951;DHT22;51482;47.014;7.652;2022-10-16T15:05:17;29.80;61.60
64951;DHT22;51482;47.014;7.652;2022-10-16T15:07:43;29.80;61.00
64951;DHT22;51482;47.014;7.652;2022-10-16T15:10:09;29.70;60.20
64951;DHT22;51482;47.014;7.652;2022-10-16T15:12:35;29.40;61.10
64951;DHT22;51482;47.014;7.652;2022-10-16T15:15:00;29.30;63.10
64951;DHT22;51482;47.014;7.652;2022-10-16T15:17:26;28.80;64.90
64951;DHT22;51482;47.014;7.652;2022-10-16T15:19:52;28.50;65.20
64951;DHT22;51482;47.014;7.652;2022-10-16T15:22:17;28.40;67.30
64951;DHT22;51482;47.014;7.652;2022-10-16T15:24:43;28.50;67.90
64951;DHT22;51482;47.014;7.652;2022-10-16T15:27:09;28.40;67.60
64951;DHT22;51482;47.014;7.652;2022-10-16T15:29:35;28.50;69.10
64951;DHT22;51482;47.014;7.652;2022-10-16T15:32:00;28.20;67.80
64951;DHT22;51482;47.014;7.652;2022-10-16T15:34:26;28.20;68.20
64951;DHT22;51482;47.014;7.652;2022-10-16T15:36:51;27.90;69.20
64951;DHT22;51482;47.014;7.652;2022-10-16T15:39:20;27.70;69.80
64951;DHT22;51482;47.014;7.652;2022-10-16T15:41:47;27.20;71.60
64951;DHT22;51482;47.014;7.652;2022-10-16T15:44:19;26.80;72.00
64951;DHT22;51482;47.014;7.652;2022-10-16T15:46:46;26.40;73.90
64951;DHT22;51482;47.014;7.652;2022-10-16T15:49:12;26.00;75.70
64951;DHT22;51482;47.014;7.652;2022-10-16T15:51:39;25.90;78.00
64951;DHT22;51482;47.014;7.652;2022-10-16T15:54:05;25.60;78.20
64951;DHT22;51482;47.014;7.652;2022-10-16T15:56:31;25.50;78.00
64951;DHT22;51482;47.014;7.652;2022-10-16T15:59:02;25.20;81.00
64951;DHT22;51482;47.014;7.652;2022-10-16T16:01:28;24.90;82.10
64951;DHT22;51482;47.014;7.652;2022-10-16T16:03:55;24.80;83.30
64951;DHT22;51482;47.014;7.652;2022-10-16T16:06:21;24.80;84.50
64951;DHT22;51482;47.014;7.652;2022-10-16T16:08:47;24.90;85.00
64951;DHT22;51482;47.014;7.652;2022-10-16T16:11:15;24.80;85.00
64951;DHT22;51482;47.014;7.652;2022-10-16T16:13:41;24.80;85.40
64951;DHT22;51482;47.014;7.652;2022-10-16T16:16:12;24.50;86.00
64951;DHT22;51482;47.014;7.652;2022-10-16T16:18:38;24.40;87.40
64951;DHT22;51482;47.014;7.652;2022-10-16T16:21:04;24.30;89.20
64951;DHT22;51482;47.014;7.652;2022-10-16T16:23:30;24.30;90.50
64951;DHT22;51482;47.014;7.652;2022-10-16T16:26:04;24.40;89.30
64951;DHT22;51482;47.014;7.652;2022-10-16T16:28:29;23.80;90.10
64951;DHT22;51482;47.014;7.652;2022-10-16T16:30:55;23.30;90.40
64951;DHT22;51482;47.014;7.652;2022-10-16T16:33:21;23.30;91.50
64951;DHT22;51482;47.014;7.652;2022-10-16T16:35:50;22.60;91.70
64951;DHT22;51482;47.014;7.652;2022-10-16T16:38:15;22.40;92.60
64951;DHT22;51482;47.014;7.652;2022-10-16T16:40:41;22.10;93.40
64951;DHT22;51482;47.014;7.652;2022-10-16T16:43:09;21.80;93.90
64951;DHT22;51482;47.014;7.652;2022-10-16T16:45:35;21.70;94.20
64951;DHT22;51482;47.014;7.652;2022-10-16T16:48:14;21.50;94.50
64951;DHT22;51482;47.014;7.652;2022-10-16T16:50:40;21.30;95.90
64951;DHT22;51482;47.014;7.652;2022-10-16T16:53:05;21.10;96.30
64951;DHT22;51482;47.014;7.652;2022-10-16T16:55:33;21.10;96.70
64951;DHT22;51482;47.014;7.652;2022-10-16T16:57:59;21.20;97.20
64951;DHT22;51482;47.014;7.652;2022-10-16T17:00:31;21.00;97.50
64951;DHT22;51482;47.014;7.652;2022-10-16T17:02:59;21.00;98.50
64951;DHT22;51482;47.014;7.652;2022-10-16T17:05:25;20.80;99.10
64951;DHT22;51482;47.014;7.652;2022-10-16T17:07:53;20.40;99.20
64951;DHT22;51482;47.014;7.652;2022-10-16T17:10:19;20.40;99.90
64951;DHT22;51482;47.014;7.652;2022-10-16T17:12:44;19.90;99.90
64951;DHT22;51482;47.014;7.652;2022-10-16T17:15:11;19.90;99.90
64951;DHT22;51482;47.014;7.652;2022-10-16T17:17:37;19.90;99.90
64951;DHT22;51482;47.014;7.652;2022-10-16T17:20:12;19.20;99.90
64951;DHT22;51482;47.014;7.652;2022-10-16T17:22:40;19.60;99.90
64951;DHT22;51482;47.014;7.652;2022-10-16T17:25:08;19.60;99.90
64951;DHT22;51482;47.014;7.652;2022-10-16T17:27:34;19.40;99.90
64951;DHT22;51482;47.014;7.652;2022-10-16T17:30:07;19.30;99.90
64951;DHT22;51482;47.014;7.652;2022-10-16T17:32:33;19.30;99.90
64951;DHT22;51482;47.014;7.652;2022-10-16T17:34:58;19.10;99.90
64951;DHT22;51482;47.014;7.652;2022-10-16T17:37:24;19.50;99.90
64951;DHT22;51482;47.014;7.652;2022-10-16T17:39:50;18.80;99.90
64951;DHT22;51482;47.014;7.652;2022-10-16T17:42:22;19.20;99.90
64951;DHT22;51482;47.014;7.652;2022-10-16T17:44:50;18.50;99.90
64951;DHT22;51482;47.014;7.652;2022-10-16T17:47:16;19.10;99.90
64951;DHT22;51482;47.014;7.652;2022-10-16T17:49:41;18.70;99.90
64951;DHT22;51482;47.014;7.652;2022-10-16T17:52:07;18.60;99.90